Time;durP1;ratioP1;P1;durP2;ratioP2;P2;SDS_P1;SDS_P2;PMS_P1;PMS_P2;Temp;Humidity;BMP_temperature;BMP_pressure;BME280_temperature;BME280_humidity;BME280_pressure;Samples;Min_cycle;Max_cycle;Signal;HPM_P1;HPM_P2
2023/08/07 00:01:14;;;;;;;0.70;0.70;;;20.60;53.20;;;;;;5149361;27;45413;-70
2023/08/07 00:03:41;;;;;;;0.70;0.70;;;20.60;53.20;;;;;;5149221;27;45315;-71
2023/08/07 00:06:07;;;;;;;1.13;0.70;;;20.60;53.20;;;;;;5149377;27;45541;-71
2023/08/07 00:08:36;;;;;;;0.75;0.75;;;20.60;53.20;;;;;;5149510;27;45199;-70
2023/08/07 00:11:07;;;;;;;0.75;0.75;;;20.60;53.20;;;;;;5149574;27;45177;-71
2023/08/07 00:13:35;;;;;;;0.85;0.85;;;20.60;53.20;;;;;;5149693;27;45295;-70
2023/08/07 00:16:02;;;;;;;1.02;0.65;;;20.60;53.10;;;;;;5149219;27;46663;-71
2023/08/07 00:18:29;;;;;;;0.73;0.57;;;20.60;53.20;;;;;;5146367;27;45341;-71
2023/08/07 00:20:55;;;;;;;0.68;0.63;;;20.60;53.20;;;;;;5149473;27;45190;-71
2023/08/07 00:23:22;;;;;;;1.20;0.90;;;20.60;53.10;;;;;;5149633;27;45399;-71
2023/08/07 00:25:49;;;;;;;0.85;0.70;;;20.60;53.20;;;;;;5149191;27;46319;-71
2023/08/07 00:28:16;;;;;;;0.60;0.60;;;20.50;53.20;;;;;;5149125;27;45314;-70
2023/08/07 00:30:44;;;;;;;1.83;0.88;;;20.60;53.20;;;;;;5149328;27;45366;-71
2023/08/07 00:33:11;;;;;;;1.20;0.85;;;20.60;53.20;;;;;;5149354;27;45391;-71
2023/08/07 00:35:38;;;;;;;1.48;0.95;;;20.50;53.10;;;;;;5148861;27;45891;-71
2023/08/07 00:38:05;;;;;;;1.08;0.55;;;20.50;53.10;;;;;;5148956;27;45324;-71
2023/08/07 00:40:38;;;;;;;1.73;0.88;;;20.50;53.10;;;;;;5149052;27;45444;-70
2023/08/07 00:43:05;;;;;;;0.85;0.70;;;20.50;53.20;;;;;;5149274;27;45198;-71
2023/08/07 00:45:33;;;;;;;0.70;0.60;;;20.50;53.20;;;;;;5148874;27;45359;-71
2023/08/07 00:48:02;;;;;;;1.45;0.80;;;20.50;53.20;;;;;;5148318;27;45302;-70
2023/08/07 00:50:29;;;;;;;0.63;0.60;;;20.50;53.10;;;;;;5148302;27;45159;-70
2023/08/07 00:52:56;;;;;;;0.73;0.60;;;20.50;53.20;;;;;;5148611;27;45221;-71
2023/08/07 00:55:23;;;;;;;0.80;0.80;;;20.50;53.10;;;;;;5148708;27;47276;-70
2023/08/07 00:57:49;;;;;;;0.50;0.50;;;20.50;53.70;;;;;;5148808;27;45280;-70
2023/08/07 01:00:17;;;;;;;0.50;0.50;;;20.50;53.10;;;;;;5148693;27;45270;-70
2023/08/07 01:02:50;;;;;;;0.57;0.57;;;20.50;53.10;;;;;;5148908;27;45391;-71
2023/08/07 01:05:19;;;;;;;0.50;0.50;;;20.40;53.10;;;;;;5148560;27;45309;-71
2023/08/07 01:07:48;;;;;;;0.77;0.77;;;20.50;53.10;;;;;;5148222;27;45295;-70
2023/08/07 01:10:15;;;;;;;0.73;0.73;;;20.50;53.10;;;;;;5148442;27;45324;-71
2023/08/07 01:12:43;;;;;;;1.73;0.60;;;20.50;53.10;;;;;;5148587;27;45248;-71
2023/08/07 01:15:12;;;;;;;0.60;0.60;;;20.40;53.10;;;;;;5147958;27;45866;-71
2023/08/07 01:17:39;;;;;;;0.70;0.70;;;20.40;53.10;;;;;;5148538;27;45385;-71
2023/08/07 01:20:07;;;;;;;0.68;0.55;;;20.50;53.10;;;;;;5148711;27;45169;-71
2023/08/07 01:22:35;;;;;;;0.70;0.70;;;20.40;53.00;;;;;;5148923;27;45236;-70
2023/08/07 01:25:03;;;;;;;1.02;0.60;;;20.40;53.00;;;;;;5148703;27;45444;-71
2023/08/07 01:27:33;;;;;;;0.70;0.70;;;20.40;53.00;;;;;;5148651;27;45389;-70
2023/08/07 01:30:03;;;;;;;0.50;0.50;;;20.40;53.00;;;;;;5148907;27;45465;-71
2023/08/07 01:32:35;;;;;;;0.77;0.77;;;20.40;53.70;;;;;;5149041;27;45466;-70
2023/08/07 01:35:02;;;;;;;0.77;0.77;;;20.40;53.10;;;;;;5148849;27;46381;-71
2023/08/07 01:37:30;;;;;;;0.70;0.70;;;20.40;53.10;;;;;;5148550;27;45421;-71
2023/08/07 01:39:58;;;;;;;0.55;0.55;;;20.40;53.10;;;;;;5147870;27;45214;-70
2023/08/07 01:42:25;;;;;;;0.70;0.70;;;20.40;53.10;;;;;;5147941;27;45255;-71
2023/08/07 01:44:52;;;;;;;1.55;0.60;;;20.40;53.10;;;;;;5148151;27;45303;-70
2023/08/07 01:47:19;;;;;;;0.80;0.75;;;20.40;53.10;;;;;;5148052;27;45407;-71
2023/08/07 01:49:46;;;;;;;0.70;0.70;;;20.40;53.10;;;;;;5148330;27;45327;-70
2023/08/07 01:52:13;;;;;;;0.73;0.60;;;20.40;53.10;;;;;;5148366;27;45311;-71
2023/08/07 01:54:39;;;;;;;0.65;0.65;;;20.40;53.20;;;;;;5147445;27;45453;-71
2023/08/07 01:57:08;;;;;;;0.77;0.70;;;20.30;53.10;;;;;;5147829;27;45318;-72
2023/08/07 01:59:35;;;;;;;0.80;0.80;;;20.40;53.00;;;;;;5148147;27;45381;-70
2023/08/07 02:02:02;;;;;;;0.50;0.50;;;20.40;53.10;;;;;;5148217;27;45330;-71
2023/08/07 02:04:29;;;;;;;0.47;0.45;;;20.40;53.10;;;;;;5149201;27;46648;-71
2023/08/07 02:06:55;;;;;;;1.55;0.73;;;20.40;53.00;;;;;;5151427;27;45378;-71
2023/08/07 02:09:23;;;;;;;0.90;0.90;;;20.30;53.10;;;;;;5151514;27;45374;-71
2023/08/07 02:11:50;;;;;;;0.60;0.60;;;20.30;53.00;;;;;;5151638;27;45290;-71
2023/08/07 02:14:18;;;;;;;0.50;0.50;;;20.30;53.10;;;;;;5151264;27;46363;-71
2023/08/07 02:16:45;;;;;;;0.63;0.63;;;20.30;53.00;;;;;;5151302;27;45221;-71
2023/08/07 02:19:11;;;;;;;0.77;0.60;;;20.30;53.00;;;;;;5151268;27;45209;-71
2023/08/07 02:21:38;;;;;;;0.57;0.57;;;20.30;53.00;;;;;;5151507;27;45520;-71
2023/08/07 02:24:05;;;;;;;0.77;0.75;;;20.30;53.10;;;;;;5150463;27;45333;-70
2023/08/07 02:26:32;;;;;;;0.90;0.73;;;20.30;53.00;;;;;;5150837;27;45168;-71
2023/08/07 02:28:59;;;;;;;0.63;0.63;;;20.30;53.00;;;;;;5150831;27;45191;-71
2023/08/07 02:31:27;;;;;;;0.98;0.80;;;20.30;53.10;;;;;;5151272;27;45434;-72
2023/08/07 02:33:54;;;;;;;0.60;0.60;;;20.20;53.60;;;;;;5150867;27;45702;-71
2023/08/07 02:36:21;;;;;;;0.93;0.60;;;20.20;53.60;;;;;;5150835;27;45293;-71
2023/08/07 02:38:48;;;;;;;0.63;0.63;;;20.30;53.10;;;;;;5151096;27;45248;-71
2023/08/07 02:41:15;;;;;;;0.47;0.47;;;20.30;53.10;;;;;;5151192;27;45198;-71
2023/08/07 02:43:41;;;;;;;0.52;0.47;;;20.20;53.00;;;;;;5150670;27;46756;-71
2023/08/07 02:46:08;;;;;;;0.50;0.50;;;20.30;53.10;;;;;;5150742;27;45333;-71
2023/08/07 02:48:37;;;;;;;0.68;0.60;;;20.30;53.10;;;;;;5151144;27;45332;-71
2023/08/07 02:51:04;;;;;;;0.60;0.60;;;20.20;53.00;;;;;;5151077;27;45130;-70
2023/08/07 02:53:30;;;;;;;0.50;0.50;;;20.20;53.00;;;;;;5150170;27;47021;-70
2023/08/07 02:55:58;;;;;;;0.60;0.60;;;20.20;53.00;;;;;;5150184;27;45331;-71
2023/08/07 02:58:25;;;;;;;0.77;0.60;;;20.20;53.00;;;;;;5150911;27;45391;-71
2023/08/07 03:00:52;;;;;;;0.60;0.60;;;20.20;53.10;;;;;;5150870;27;45172;-71
2023/08/07 03:03:19;;;;;;;0.70;0.60;;;20.20;53.00;;;;;;5150327;27;46401;-71
2023/08/07 03:05:51;;;;;;;0.60;0.60;;;20.20;53.00;;;;;;5150462;27;45244;-71
2023/08/07 03:08:17;;;;;;;0.52;0.52;;;20.20;53.00;;;;;;5149707;27;45187;-71
2023/08/07 03:10:51;;;;;;;0.60;0.60;;;20.20;53.00;;;;;;5150316;27;45185;-70
2023/08/07 03:13:18;;;;;;;1.52;0.85;;;20.20;53.10;;;;;;5150408;27;47344;-71
2023/08/07 03:15:45;;;;;;;0.70;0.60;;;20.20;53.00;;;;;;5150141;27;45316;-71
2023/08/07 03:18:12;;;;;;;0.50;0.50;;;20.20;53.10;;;;;;5150556;27;45531;-71
2023/08/07 03:20:39;;;;;;;0.55;0.55;;;20.20;53.00;;;;;;5150449;27;45284;-72
2023/08/07 03:23:07;;;;;;;0.60;0.60;;;20.20;53.10;;;;;;5150022;27;45488;-71
2023/08/07 03:25:34;;;;;;;0.60;0.60;;;20.20;53.00;;;;;;5150118;27;45191;-72
2023/08/07 03:28:00;;;;;;;0.60;0.60;;;20.20;53.10;;;;;;5150109;27;45171;-72
2023/08/07 03:30:27;;;;;;;0.82;0.60;;;20.20;53.00;;;;;;5150318;27;45488;-71
2023/08/07 03:32:54;;;;;;;0.57;0.57;;;20.20;53.00;;;;;;5149525;27;46292;-71
2023/08/07 03:35:21;;;;;;;0.50;0.50;;;20.10;53.00;;;;;;5150014;27;45370;-71
2023/08/07 03:37:48;;;;;;;0.65;0.60;;;20.10;53.00;;;;;;5150001;27;45199;-71
2023/08/07 03:40:16;;;;;;;0.50;0.50;;;20.20;53.10;;;;;;5150317;27;45393;-71
2023/08/07 03:42:43;;;;;;;0.60;0.60;;;20.10;53.10;;;;;;5149788;27;46398;-71
2023/08/07 03:45:10;;;;;;;0.63;0.63;;;20.20;53.10;;;;;;5149990;27;45334;-71
2023/08/07 03:47:37;;;;;;;0.80;0.80;;;20.10;53.60;;;;;;5149802;27;45221;-70
2023/08/07 03:50:05;;;;;;;0.77;0.52;;;20.20;53.10;;;;;;5150030;27;45257;-71
2023/08/07 03:52:32;;;;;;;0.43;0.43;;;20.20;53.00;;;;;;5149712;27;47700;-70
2023/08/07 03:54:58;;;;;;;0.60;0.60;;;20.10;53.00;;;;;;5148553;27;45287;-70
2023/08/07 03:57:26;;;;;;;0.70;0.55;;;20.10;53.10;;;;;;5149666;27;45330;-70
2023/08/07 03:59:54;;;;;;;1.38;0.52;;;20.10;53.10;;;;;;5149885;27;45337;-70
2023/08/07 04:02:20;;;;;;;1.30;0.70;;;20.10;53.10;;;;;;5149414;27;45437;-70
2023/08/07 04:04:47;;;;;;;0.70;0.57;;;20.10;53.70;;;;;;5149406;27;45383;-71
2023/08/07 04:07:14;;;;;;;0.60;0.60;;;20.10;53.10;;;;;;5149748;27;45315;-71
2023/08/07 04:09:41;;;;;;;0.63;0.63;;;20.10;53.10;;;;;;5147045;27;45288;-71
2023/08/07 04:12:09;;;;;;;1.63;0.77;;;20.10;53.00;;;;;;5149363;27;46409;-71
2023/08/07 04:14:37;;;;;;;0.80;0.80;;;20.10;53.10;;;;;;5149278;27;45134;-70
2023/08/07 04:17:04;;;;;;;0.98;0.75;;;20.10;53.00;;;;;;5149404;27;45301;-71
2023/08/07 04:19:31;;;;;;;0.70;0.70;;;20.10;53.00;;;;;;5149542;27;45758;-71
2023/08/07 04:21:58;;;;;;;0.55;0.55;;;20.10;53.00;;;;;;5149167;27;46401;-70
2023/08/07 04:24:25;;;;;;;0.93;0.57;;;20.10;53.00;;;;;;5149163;27;45256;-70
2023/08/07 04:26:53;;;;;;;0.60;0.60;;;20.10;53.00;;;;;;5148669;27;44629;-70
2023/08/07 04:29:20;;;;;;;1.08;0.70;;;20.10;53.00;;;;;;5149377;27;45402;-71
2023/08/07 04:31:48;;;;;;;0.70;0.70;;;20.10;53.00;;;;;;5148914;27;45366;-70
2023/08/07 04:34:15;;;;;;;0.60;0.60;;;20.10;53.10;;;;;;5148919;27;45233;-70
2023/08/07 04:36:42;;;;;;;0.60;0.60;;;20.10;53.10;;;;;;5148909;27;45249;-71
2023/08/07 04:39:09;;;;;;;1.13;0.73;;;20.10;53.00;;;;;;5148493;27;45466;-71
2023/08/07 04:41:35;;;;;;;0.52;0.40;;;20.10;53.10;;;;;;5148768;27;45477;-70
2023/08/07 04:44:02;;;;;;;1.40;0.68;;;20.10;53.10;;;;;;5149093;27;45351;-71
2023/08/07 04:46:30;;;;;;;0.60;0.60;;;20.10;53.20;;;;;;5149150;27;45193;-71
2023/08/07 04:48:58;;;;;;;0.65;0.63;;;20.00;53.00;;;;;;5149046;27;45188;-71
2023/08/07 04:51:25;;;;;;;1.20;0.80;;;20.00;53.00;;;;;;5148562;27;45529;-70
2023/08/07 04:53:52;;;;;;;0.80;0.57;;;20.00;53.00;;;;;;5148569;27;45449;-70
2023/08/07 04:56:19;;;;;;;0.85;0.70;;;20.10;53.10;;;;;;5148970;27;45304;-70
2023/08/07 04:58:46;;;;;;;0.82;0.80;;;20.00;53.00;;;;;;5149032;27;45199;-71
2023/08/07 05:01:13;;;;;;;0.60;0.60;;;20.00;53.00;;;;;;5148613;27;45776;-71
2023/08/07 05:03:39;;;;;;;0.73;0.68;;;20.00;53.00;;;;;;5148875;27;45425;-70
2023/08/07 05:06:08;;;;;;;0.63;0.63;;;20.10;53.10;;;;;;5148975;27;45262;-70
2023/08/07 05:08:34;;;;;;;0.68;0.68;;;20.00;53.00;;;;;;5149044;27;45464;-70
2023/08/07 05:11:01;;;;;;;0.60;0.60;;;20.00;53.00;;;;;;5148690;27;46582;-70
2023/08/07 05:13:28;;;;;;;0.68;0.68;;;20.00;53.10;;;;;;5148588;27;45421;-70
2023/08/07 05:15:55;;;;;;;0.60;0.60;;;20.00;53.10;;;;;;5148629;27;45371;-70
2023/08/07 05:18:22;;;;;;;0.60;0.60;;;20.00;53.10;;;;;;5148687;27;45312;-71
2023/08/07 05:20:49;;;;;;;0.75;0.57;;;20.00;53.10;;;;;;5147475;27;46381;-70
2023/08/07 05:23:17;;;;;;;0.57;0.57;;;20.00;53.10;;;;;;5148076;27;45196;-70
2023/08/07 05:25:46;;;;;;;0.52;0.52;;;20.00;53.10;;;;;;5145716;27;45283;-70
2023/08/07 05:28:13;;;;;;;0.95;0.57;;;20.00;53.10;;;;;;5148524;27;45422;-70
2023/08/07 05:30:40;;;;;;;0.55;0.55;;;20.00;53.10;;;;;;5148126;27;46430;-71
2023/08/07 05:33:07;;;;;;;0.75;0.70;;;20.00;53.60;;;;;;5148226;27;45142;-70
2023/08/07 05:35:33;;;;;;;1.00;0.90;;;20.00;53.10;;;;;;5148302;27;45356;-70
2023/08/07 05:38:00;;;;;;;0.75;0.70;;;20.00;53.10;;;;;;5148434;27;45412;-70
2023/08/07 05:40:29;;;;;;;0.65;0.65;;;20.00;53.10;;;;;;5150868;27;45337;-71
2023/08/07 05:42:56;;;;;;;0.85;0.63;;;20.00;53.10;;;;;;5152515;27;45181;-70
2023/08/07 05:45:23;;;;;;;0.50;0.50;;;20.00;53.00;;;;;;5152278;27;45199;-71
2023/08/07 05:47:50;;;;;;;0.60;0.57;;;20.00;53.00;;;;;;5152337;27;45757;-71
2023/08/07 05:50:17;;;;;;;1.60;0.65;;;20.00;53.00;;;;;;5151714;27;45438;-70
2023/08/07 05:52:44;;;;;;;1.13;0.77;;;20.00;53.00;;;;;;5152160;27;45262;-71
2023/08/07 05:55:10;;;;;;;0.85;0.50;;;20.00;53.10;;;;;;5151581;27;45471;-71
2023/08/07 05:57:39;;;;;;;0.50;0.50;;;20.00;53.10;;;;;;5151969;27;45236;-71
2023/08/07 06:00:07;;;;;;;0.60;0.60;;;20.00;53.10;;;;;;5151553;27;45244;-71
2023/08/07 06:02:34;;;;;;;0.50;0.50;;;20.00;53.20;;;;;;5151532;27;45219;-71
2023/08/07 06:05:01;;;;;;;0.60;0.60;;;20.00;53.00;;;;;;5151140;27;45118;-72
2023/08/07 06:07:28;;;;;;;0.73;0.70;;;20.00;53.00;;;;;;5151599;27;45136;-71
2023/08/07 06:09:55;;;;;;;0.80;0.65;;;20.00;53.00;;;;;;5151001;27;46451;-71
2023/08/07 06:12:22;;;;;;;1.10;0.57;;;20.00;53.00;;;;;;5151364;27;45319;-71
2023/08/07 06:14:50;;;;;;;0.35;0.35;;;20.00;53.00;;;;;;5151507;27;45264;-71
2023/08/07 06:17:17;;;;;;;0.57;0.57;;;20.00;53.00;;;;;;5151656;27;44790;-71
2023/08/07 06:19:43;;;;;;;0.70;0.70;;;20.00;53.00;;;;;;5150989;27;46720;-71
2023/08/07 06:22:10;;;;;;;0.60;0.60;;;20.00;52.90;;;;;;5151120;27;45323;-71
2023/08/07 06:24:37;;;;;;;0.50;0.50;;;20.10;53.00;;;;;;5151361;27;45336;-71
2023/08/07 06:27:04;;;;;;;1.27;0.68;;;20.10;53.00;;;;;;5151358;27;45367;-71
2023/08/07 06:29:31;;;;;;;1.02;0.70;;;20.00;52.90;;;;;;5150888;27;45235;-71
2023/08/07 06:31:59;;;;;;;0.90;0.60;;;20.10;52.90;;;;;;5151034;27;45141;-71
2023/08/07 06:34:26;;;;;;;0.63;0.63;;;20.00;52.80;;;;;;5151206;27;45338;-71
2023/08/07 06:36:53;;;;;;;0.57;0.57;;;20.00;52.90;;;;;;5151299;27;45278;-71
2023/08/07 06:39:20;;;;;;;0.60;0.57;;;20.10;53.10;;;;;;5150802;27;46259;-72
2023/08/07 06:41:46;;;;;;;0.70;0.70;;;20.00;53.00;;;;;;5150862;27;45253;-72
2023/08/07 06:44:13;;;;;;;0.43;0.43;;;20.00;53.00;;;;;;5150893;27;45318;-71
2023/08/07 06:46:40;;;;;;;1.20;0.60;;;20.00;53.10;;;;;;5150868;27;45279;-71
2023/08/07 06:49:08;;;;;;;0.80;0.60;;;20.00;53.00;;;;;;5149763;27;46387;-71
2023/08/07 06:51:35;;;;;;;1.00;0.65;;;20.00;53.00;;;;;;5150530;27;45655;-71
2023/08/07 06:54:02;;;;;;;0.40;0.40;;;20.00;53.00;;;;;;5145511;27;45196;-71
2023/08/07 06:56:30;;;;;;;0.55;0.55;;;20.10;53.10;;;;;;5151053;27;45267;-71
2023/08/07 06:58:57;;;;;;;0.82;0.60;;;20.00;53.10;;;;;;5150525;27;45397;-71
2023/08/07 07:01:24;;;;;;;0.60;0.57;;;20.00;53.10;;;;;;5150648;27;45421;-71
2023/08/07 07:03:52;;;;;;;2.10;0.70;;;20.00;53.00;;;;;;5150685;27;45213;-71
2023/08/07 07:06:20;;;;;;;3.03;0.63;;;20.00;53.00;;;;;;5150860;27;45370;-71
2023/08/07 07:08:47;;;;;;;0.40;0.40;;;20.10;53.10;;;;;;5150270;27;46820;-71
2023/08/07 07:11:15;;;;;;;0.70;0.70;;;20.00;53.10;;;;;;5150375;27;45264;-71
2023/08/07 07:13:42;;;;;;;0.50;0.50;;;20.00;53.10;;;;;;5150349;27;45207;-71
2023/08/07 07:16:10;;;;;;;0.60;0.60;;;20.10;53.00;;;;;;5150729;27;45201;-71
2023/08/07 07:18:37;;;;;;;1.08;0.70;;;20.00;53.70;;;;;;5150596;27;45347;-70
2023/08/07 07:21:04;;;;;;;0.80;0.60;;;20.10;53.10;;;;;;5150218;27;45309;-71
2023/08/07 07:23:32;;;;;;;0.65;0.47;;;20.10;53.10;;;;;;5150380;27;45241;-71
2023/08/07 07:25:59;;;;;;;0.63;0.57;;;20.10;53.10;;;;;;5150443;27;45179;-71
2023/08/07 07:28:26;;;;;;;0.57;0.52;;;20.00;53.00;;;;;;5149938;27;46263;-71
2023/08/07 07:30:53;;;;;;;0.73;0.73;;;20.00;53.40;;;;;;5150063;27;45363;-71
2023/08/07 07:33:20;;;;;;;0.70;0.70;;;20.10;53.10;;;;;;5149716;27;45207;-70
2023/08/07 07:35:46;;;;;;;0.70;0.70;;;20.10;53.00;;;;;;5150254;27;45428;-70
2023/08/07 07:38:15;;;;;;;0.63;0.63;;;20.10;53.00;;;;;;5149983;27;45524;-71
2023/08/07 07:40:43;;;;;;;0.55;0.55;;;20.10;53.00;;;;;;5149740;27;45297;-71
2023/08/07 07:43:10;;;;;;;0.50;0.50;;;20.10;52.90;;;;;;5149982;27;45287;-71
2023/08/07 07:45:37;;;;;;;0.93;0.60;;;20.10;52.90;;;;;;5150118;27;45474;-71
2023/08/07 07:48:04;;;;;;;0.75;0.75;;;20.10;53.50;;;;;;5149693;27;45274;-71
2023/08/07 07:50:31;;;;;;;0.32;0.32;;;20.10;52.90;;;;;;5149997;27;45207;-71
2023/08/07 07:52:57;;;;;;;2.03;0.60;;;20.10;53.00;;;;;;5151656;27;45240;-71
2023/08/07 07:55:25;;;;;;;0.85;0.73;;;20.10;53.00;;;;;;5149614;27;45394;-71
2023/08/07 07:57:54;;;;;;;0.70;0.65;;;20.10;53.10;;;;;;5149766;27;46363;-71
2023/08/07 08:00:23;;;;;;;0.63;0.50;;;20.10;53.10;;;;;;5149709;27;45191;-71
2023/08/07 08:02:50;;;;;;;0.50;0.50;;;20.10;53.00;;;;;;5148846;27;45337;-70
2023/08/07 08:05:17;;;;;;;0.50;0.50;;;20.20;52.90;;;;;;5149941;27;45212;-71
2023/08/07 08:07:44;;;;;;;0.50;0.50;;;20.20;52.80;;;;;;5149361;27;45499;-70
2023/08/07 08:10:12;;;;;;;0.60;0.60;;;20.20;52.80;;;;;;5149420;27;45187;-71
2023/08/07 08:12:38;;;;;;;2.47;0.60;;;20.20;52.80;;;;;;5149492;27;45388;-71
2023/08/07 08:15:08;;;;;;;0.60;0.60;;;20.20;52.70;;;;;;5149802;27;45404;-70
2023/08/07 08:17:35;;;;;;;0.60;0.60;;;20.30;52.80;;;;;;5149163;27;45301;-71
2023/08/07 08:20:01;;;;;;;0.40;0.40;;;20.20;52.70;;;;;;5148675;27;45240;-70
2023/08/07 08:22:28;;;;;;;0.77;0.70;;;20.30;52.80;;;;;;5149453;27;45321;-70
2023/08/07 08:24:55;;;;;;;0.63;0.52;;;20.20;52.80;;;;;;5149401;27;45464;-71
2023/08/07 08:27:22;;;;;;;1.20;0.80;;;20.20;52.80;;;;;;5149246;27;45309;-72
2023/08/07 08:29:49;;;;;;;0.50;0.50;;;20.20;52.80;;;;;;5148995;27;45344;-71
2023/08/07 08:32:17;;;;;;;0.50;0.50;;;20.20;52.90;;;;;;5149574;27;45183;-71
2023/08/07 08:34:45;;;;;;;0.47;0.47;;;20.20;52.80;;;;;;5149450;27;45254;-71
2023/08/07 08:37:12;;;;;;;0.80;0.80;;;20.20;52.80;;;;;;5148463;27;48068;-72
2023/08/07 08:39:39;;;;;;;0.80;0.80;;;20.30;52.90;;;;;;5149203;27;45141;-71
2023/08/07 08:42:06;;;;;;;0.40;0.40;;;20.30;52.80;;;;;;5149120;27;45267;-71
2023/08/07 08:44:33;;;;;;;0.82;0.60;;;20.20;52.90;;;;;;5149058;27;45297;-71
2023/08/07 08:47:00;;;;;;;0.50;0.50;;;20.20;52.90;;;;;;5149164;27;46694;-72
2023/08/07 08:49:31;;;;;;;0.90;0.63;;;20.30;53.00;;;;;;5149005;27;45255;-71
2023/08/07 08:51:58;;;;;;;0.70;0.60;;;20.30;52.90;;;;;;5149169;27;45390;-71
2023/08/07 08:54:25;;;;;;;4.00;0.80;;;20.30;52.90;;;;;;5148534;27;45286;-71
2023/08/07 08:56:54;;;;;;;0.70;0.70;;;20.30;52.90;;;;;;5149051;27;45465;-71
2023/08/07 08:59:21;;;;;;;0.60;0.50;;;20.30;52.90;;;;;;5149026;27;45256;-72
2023/08/07 09:01:48;;;;;;;0.80;0.70;;;20.30;52.80;;;;;;5149236;27;45462;-71
2023/08/07 09:04:15;;;;;;;1.63;0.70;;;20.30;52.70;;;;;;5149123;27;45286;-71
2023/08/07 09:06:43;;;;;;;0.63;0.63;;;20.40;52.70;;;;;;5148711;27;46445;-71
2023/08/07 09:09:10;;;;;;;0.70;0.68;;;20.40;52.60;;;;;;5148851;27;45156;-72
2023/08/07 09:11:37;;;;;;;0.70;0.70;;;20.40;52.50;;;;;;5149026;27;45256;-72
2023/08/07 09:14:04;;;;;;;0.70;0.68;;;20.50;52.50;;;;;;5151378;27;45314;-71
2023/08/07 09:16:31;;;;;;;0.50;0.50;;;20.50;52.40;;;;;;5152476;27;45319;-71
2023/08/07 09:18:57;;;;;;;0.85;0.55;;;20.50;52.30;;;;;;5152104;27;45220;-71
2023/08/07 09:21:24;;;;;;;0.68;0.68;;;20.60;52.30;;;;;;5151985;27;45221;-70
2023/08/07 09:23:52;;;;;;;1.15;0.63;;;20.60;52.20;;;;;;5152516;27;45437;-71
2023/08/07 09:26:23;;;;;;;0.47;0.47;;;20.60;52.20;;;;;;5152210;27;45508;-70
2023/08/07 09:28:51;;;;;;;0.60;0.60;;;20.60;52.80;;;;;;5152265;27;45194;-70
2023/08/07 09:31:18;;;;;;;0.65;0.65;;;20.60;52.20;;;;;;5152046;27;45378;-71
2023/08/07 09:33:47;;;;;;;2.05;0.60;;;20.70;52.20;;;;;;5152496;27;45289;-71
2023/08/07 09:36:14;;;;;;;0.70;0.45;;;20.70;52.10;;;;;;5151718;27;46557;-71
2023/08/07 09:38:41;;;;;;;0.50;0.50;;;20.70;52.10;;;;;;5151774;27;45202;-71
2023/08/07 09:41:09;;;;;;;2.22;0.70;;;20.70;52.10;;;;;;5152118;27;45236;-71
2023/08/07 09:43:36;;;;;;;1.55;0.60;;;20.70;52.20;;;;;;5152153;27;45460;-70
2023/08/07 09:46:04;;;;;;;0.73;0.70;;;20.70;52.80;;;;;;5151526;27;45284;-71
2023/08/07 09:48:33;;;;;;;2.05;0.90;;;20.70;52.20;;;;;;5151567;27;45264;-71
2023/08/07 09:51:01;;;;;;;0.57;0.55;;;20.70;52.30;;;;;;5151720;27;45290;-71
2023/08/07 09:53:28;;;;;;;0.75;0.50;;;20.70;52.40;;;;;;5151742;27;45453;-71
2023/08/07 09:55:55;;;;;;;0.60;0.60;;;20.70;52.50;;;;;;5151687;27;45553;-71
2023/08/07 09:58:24;;;;;;;1.13;0.60;;;20.70;52.50;;;;;;5151560;27;46283;-71
2023/08/07 10:00:52;;;;;;;0.75;0.60;;;20.70;52.60;;;;;;5151622;27;45309;-71
2023/08/07 10:03:20;;;;;;;0.55;0.50;;;20.70;52.50;;;;;;5151850;27;45430;-71
2023/08/07 10:05:46;;;;;;;0.88;0.68;;;20.70;52.50;;;;;;5150980;27;45216;-70
2023/08/07 10:08:13;;;;;;;0.93;0.82;;;20.70;52.60;;;;;;5151029;27;45455;-70
2023/08/07 10:10:40;;;;;;;0.98;0.68;;;20.80;52.60;;;;;;5151126;27;45321;-71
2023/08/07 10:13:07;;;;;;;0.90;0.80;;;20.80;52.50;;;;;;5152095;27;45279;-70
2023/08/07 10:15:36;;;;;;;0.60;0.60;;;20.80;52.50;;;;;;5151125;27;46593;-71
2023/08/07 10:18:02;;;;;;;0.60;0.60;;;20.80;52.50;;;;;;5150886;27;45206;-71
2023/08/07 10:20:30;;;;;;;1.38;0.70;;;20.80;52.50;;;;;;5151325;27;45381;-70
2023/08/07 10:22:58;;;;;;;0.50;0.50;;;20.80;52.50;;;;;;5151374;27;45329;-71
2023/08/07 10:25:24;;;;;;;0.70;0.70;;;20.80;52.50;;;;;;5149979;27;46241;-72
2023/08/07 10:27:52;;;;;;;0.80;0.60;;;20.90;52.60;;;;;;5150931;27;45288;-69
2023/08/07 10:30:19;;;;;;;0.50;0.50;;;20.90;52.50;;;;;;5151148;27;45442;-69
2023/08/07 10:32:48;;;;;;;0.50;0.50;;;20.90;52.60;;;;;;5151445;27;45375;-69
2023/08/07 10:35:24;;;;;;;0.90;0.90;;;20.90;52.50;;;;;;5151397;27;45606;-69
2023/08/07 10:37:51;;;;;;;1.33;0.70;;;21.00;52.60;;;;;;5151503;27;45252;-69
2023/08/07 10:40:20;;;;;;;0.82;0.73;;;21.00;52.60;;;;;;5151638;27;45340;-68
2023/08/07 10:42:57;;;;;;;0.98;0.65;;;21.00;52.60;;;;;;5151255;27;45400;-68
2023/08/07 10:45:25;;;;;;;1.38;0.70;;;21.00;52.60;;;;;;5150727;27;45281;-68
2023/08/07 10:48:03;;;;;;;2.13;1.17;;;21.00;52.60;;;;;;5151539;27;45339;-69
2023/08/07 10:50:31;;;;;;;2.65;1.10;;;21.10;52.70;;;;;;5151032;27;45368;-68
2023/08/07 10:52:57;;;;;;;1.98;1.17;;;21.10;52.70;;;;;;5151119;27;45343;-68
2023/08/07 10:55:25;;;;;;;3.75;1.52;;;21.10;52.80;;;;;;5150833;27;47658;-68
2023/08/07 10:57:51;;;;;;;1.58;1.38;;;21.10;52.80;;;;;;5150296;27;45344;-68
2023/08/07 11:00:22;;;;;;;2.58;1.80;;;21.20;52.80;;;;;;5147779;27;45259;-68
2023/08/07 11:02:50;;;;;;;4.72;2.35;;;21.20;52.70;;;;;;5150278;27;45332;-68
2023/08/07 11:05:18;;;;;;;6.05;2.70;;;21.20;52.70;;;;;;5150459;27;45526;-69
2023/08/07 11:07:46;;;;;;;5.65;2.60;;;21.30;52.80;;;;;;5150647;27;45432;-69
2023/08/07 11:10:14;;;;;;;6.68;3.03;;;21.20;52.70;;;;;;5150344;27;45231;-68
2023/08/07 11:12:41;;;;;;;10.18;3.70;;;21.30;52.80;;;;;;5150521;27;45258;-70
2023/08/07 11:15:12;;;;;;;8.82;4.50;;;21.30;52.80;;;;;;5149642;27;45462;-70
2023/08/07 11:17:41;;;;;;;9.93;4.55;;;21.30;52.80;;;;;;5143787;27;45371;-68
2023/08/07 11:20:09;;;;;;;10.90;3.97;;;21.40;52.70;;;;;;5149677;27;45207;-70
2023/08/07 11:22:38;;;;;;;14.30;4.20;;;21.50;52.60;;;;;;5149922;27;45568;-69
2023/08/07 11:25:09;;;;;;;9.82;4.55;;;21.50;53.00;;;;;;5149811;27;45355;-70
2023/08/07 11:27:36;;;;;;;11.95;4.70;;;21.50;52.40;;;;;;5149656;27;45342;-71
2023/08/07 11:30:04;;;;;;;11.63;5.40;;;21.50;52.50;;;;;;5149929;27;45346;-69
2023/08/07 11:32:31;;;;;;;12.05;5.30;;;21.50;52.40;;;;;;5150253;27;45241;-70
2023/08/07 11:34:58;;;;;;;13.43;5.90;;;21.60;52.50;;;;;;5149486;27;45231;-70
2023/08/07 11:37:25;;;;;;;16.88;5.93;;;21.60;52.50;;;;;;5147712;27;45381;-70
2023/08/07 11:39:53;;;;;;;13.07;6.18;;;21.60;52.50;;;;;;5148909;27;45444;-70
2023/08/07 11:42:22;;;;;;;12.18;5.90;;;21.60;52.50;;;;;;5148702;27;45382;-70
2023/08/07 11:44:49;;;;;;;12.38;5.60;;;21.60;52.60;;;;;;5148683;27;46173;-71
2023/08/07 11:47:17;;;;;;;14.07;6.13;;;21.60;52.60;;;;;;5148500;27;45425;-71
2023/08/07 11:49:44;;;;;;;9.85;5.43;;;21.70;52.60;;;;;;5142967;27;45269;-70
2023/08/07 11:52:10;;;;;;;14.40;5.18;;;21.70;52.60;;;;;;5148732;27;45603;-70
2023/08/07 11:54:37;;;;;;;10.07;5.57;;;21.70;52.50;;;;;;5148260;27;45307;-71
2023/08/07 11:57:17;;;;;;;14.40;7.25;;;21.80;52.60;;;;;;5148961;27;45307;-70
2023/08/07 11:59:48;;;;;;;13.88;7.03;;;21.80;52.60;;;;;;5143201;27;45373;-70
2023/08/07 12:02:16;;;;;;;17.38;7.13;;;21.90;52.60;;;;;;5148596;27;45184;-70
2023/08/07 12:04:43;;;;;;;17.55;7.60;;;21.90;52.50;;;;;;5142645;27;45499;-71
2023/08/07 12:07:10;;;;;;;15.05;7.60;;;21.90;52.30;;;;;;5148388;27;45464;-69
2023/08/07 12:09:38;;;;;;;20.10;8.23;;;22.00;53.00;;;;;;5148465;27;45242;-69
2023/08/07 12:12:07;;;;;;;16.08;8.30;;;21.90;52.40;;;;;;5148321;27;45258;-69
2023/08/07 12:14:34;;;;;;;19.17;7.93;;;21.90;52.30;;;;;;5147899;27;46384;-69
2023/08/07 12:17:02;;;;;;;18.90;8.15;;;21.90;52.40;;;;;;5147928;27;45223;-69
2023/08/07 12:19:37;;;;;;;16.20;7.75;;;21.90;52.40;;;;;;5147968;27;45283;-69
2023/08/07 12:22:06;;;;;;;16.73;8.40;;;21.90;52.50;;;;;;5146079;27;45228;-69
2023/08/07 12:24:33;;;;;;;16.85;8.68;;;21.90;52.50;;;;;;5147760;27;46531;-69
2023/08/07 12:27:00;;;;;;;17.75;8.00;;;22.00;52.60;;;;;;5148578;27;45355;-69
2023/08/07 12:29:29;;;;;;;15.48;8.30;;;22.10;52.40;;;;;;5148683;27;45263;-69
2023/08/07 12:31:58;;;;;;;18.40;8.52;;;22.10;52.20;;;;;;5149013;27;45298;-69
2023/08/07 12:34:25;;;;;;;16.02;8.65;;;22.10;52.10;;;;;;5148683;27;46697;-69
2023/08/07 12:36:52;;;;;;;17.98;8.57;;;22.20;52.20;;;;;;5148527;27;45201;-69
2023/08/07 12:39:19;;;;;;;22.30;9.38;;;22.20;52.20;;;;;;5148488;27;45205;-69
2023/08/07 12:41:46;;;;;;;17.52;8.45;;;22.20;52.20;;;;;;5148462;27;45306;-69
2023/08/07 12:44:13;;;;;;;19.70;8.95;;;22.20;52.10;;;;;;5148205;27;45743;-69
2023/08/07 12:46:41;;;;;;;20.90;9.05;;;22.30;52.00;;;;;;5148132;27;45337;-69